[Closed] Airport ATC at KSNA (SoCal) - TS1

Come on over to john wayne for some pattern work or arrivals/departures. Will be going for about an hour! :) Feedback is welcome!

METAR : KSNA 242153Z VRB06KT 10SM SCT035 SCT220 13/04 A3001
NOTAM: Nothing bigger than a 737 or A320

3 Likes

To whoever left after I said taxi to 20L at the runway, Iā€™m sorry!

Comin over in 10mins if still will be controlling. QA0360

1 Like

How many people showed up? @Ksisky

Back open! :)

I had to go, thanks if you came!

This topic was automatically closed 90 days after the last reply. New replies are no longer allowed.